Time;durP1;ratioP1;P1;durP2;ratioP2;P2;SDS_P1;SDS_P2;PMS_P1;PMS_P2;Temp;Humidity;BMP_temperature;BMP_pressure;BME280_temperature;BME280_humidity;BME280_pressure;Samples;Min_cycle;Max_cycle;Signal;HPM_P1;HPM_P2
2024/03/12 00:01:47;;;;;;;22.52;14.40;;;8.10;99.90;;;;;;4977224;28;20293;-86
2024/03/12 00:04:13;;;;;;;14.65;9.98;;;8.10;99.90;;;;;;4964974;28;20401;-85
2024/03/12 00:06:42;;;;;;;19.25;12.60;;;8.10;99.90;;;;;;4946270;28;20065;-89
2024/03/12 00:09:09;;;;;;;13.52;7.45;;;8.10;99.90;;;;;;4974962;28;20046;-92
2024/03/12 00:11:35;;;;;;;18.05;11.25;;;7.90;99.90;;;;;;4983452;28;20094;-90
2024/03/12 00:14:01;;;;;;;17.70;10.98;;;8.00;99.90;;;;;;4959468;28;20048;-88
2024/03/12 00:16:40;;;;;;;15.82;9.55;;;8.00;99.90;;;;;;4990020;28;20034;-84
2024/03/12 00:19:09;;;;;;;10.82;6.20;;;8.00;99.90;;;;;;5011192;28;20018;-87
2024/03/12 00:21:36;;;;;;;17.73;11.43;;;7.90;99.90;;;;;;4979275;28;20057;-85
2024/03/12 00:24:04;;;;;;;23.50;14.70;;;8.00;99.90;;;;;;4986173;28;20084;-90
2024/03/12 00:26:32;;;;;;;25.38;14.43;;;8.00;99.90;;;;;;4973713;28;20034;-88
2024/03/12 00:29:01;;;;;;;18.50;11.75;;;8.10;99.90;;;;;;4989033;28;20034;-88
2024/03/12 00:31:27;;;;;;;19.38;11.18;;;8.00;99.90;;;;;;4961123;28;20038;-85
2024/03/12 00:33:55;;;;;;;28.60;15.98;;;8.00;99.90;;;;;;4950618;28;20041;-87
2024/03/12 00:36:21;;;;;;;20.50;12.75;;;7.90;99.90;;;;;;4936113;28;20035;-89
2024/03/12 00:38:47;;;;;;;20.30;11.82;;;7.90;99.90;;;;;;4953152;28;20041;-87
2024/03/12 00:41:17;;;;;;;22.60;13.85;;;8.00;99.90;;;;;;4962425;28;20026;-90
2024/03/12 00:43:42;;;;;;;22.75;12.85;;;8.10;99.90;;;;;;4943128;28;20045;-90
2024/03/12 00:46:11;;;;;;;28.08;16.30;;;8.10;99.90;;;;;;4976505;28;20098;-88
2024/03/12 00:48:37;;;;;;;21.85;12.30;;;8.00;99.90;;;;;;4974234;28;20026;-87
2024/03/12 00:51:03;;;;;;;28.58;16.40;;;8.00;99.90;;;;;;4976294;28;20042;-88
2024/03/12 00:53:29;;;;;;;24.98;12.88;;;8.00;99.90;;;;;;4978323;28;20084;-83
2024/03/12 00:55:55;;;;;;;33.13;17.80;;;7.90;99.90;;;;;;4980903;28;20038;-85
2024/03/12 00:58:21;;;;;;;27.30;15.65;;;7.90;99.90;;;;;;4974646;28;20022;-89
2024/03/12 01:00:48;;;;;;;28.55;14.88;;;8.00;99.90;;;;;;4991893;28;20097;-87
2024/03/12 01:03:14;;;;;;;22.58;13.35;;;8.00;99.90;;;;;;4992599;28;20049;-88
2024/03/12 01:05:40;;;;;;;32.10;18.33;;;8.00;99.90;;;;;;4989063;28;20047;-88
2024/03/12 01:08:06;;;;;;;27.77;16.40;;;8.00;99.90;;;;;;4974911;28;20027;-86
2024/03/12 01:10:33;;;;;;;27.27;15.20;;;8.00;99.90;;;;;;4988364;28;20663;-85
2024/03/12 01:13:05;;;;;;;34.47;19.40;;;8.10;99.90;;;;;;4960111;28;20038;-83
2024/03/12 01:15:31;;;;;;;29.73;15.55;;;8.10;99.90;;;;;;4977406;28;20061;-83
2024/03/12 01:17:56;;;;;;;30.85;15.13;;;8.00;99.90;;;;;;4986021;28;20034;-89
2024/03/12 01:20:24;;;;;;;29.23;13.23;;;8.00;99.90;;;;;;4987851;28;20049;-86
2024/03/12 01:22:50;;;;;;;28.80;14.65;;;8.00;99.90;;;;;;4988965;28;20110;-86
2024/03/12 01:25:16;;;;;;;34.80;19.52;;;8.00;99.90;;;;;;4987989;28;20117;-87
2024/03/12 01:27:44;;;;;;;32.92;17.85;;;8.00;99.90;;;;;;4972282;28;20034;-88
2024/03/12 01:30:16;;;;;;;34.65;17.80;;;8.00;99.90;;;;;;4988630;28;20110;-81
2024/03/12 01:32:45;;;;;;;41.45;23.00;;;8.00;99.90;;;;;;4989572;28;20065;-90
2024/03/12 01:35:12;;;;;;;35.58;16.85;;;7.90;99.90;;;;;;4975302;28;20089;-88
2024/03/12 01:37:42;;;;;;;36.78;18.27;;;8.00;99.90;;;;;;4992913;28;20483;-87
2024/03/12 01:40:19;;;;;;;48.17;24.13;;;8.00;99.90;;;;;;4968501;28;20034;-91
2024/03/12 01:43:09;;;;;;;46.17;23.23;;;8.00;99.90;;;;;;4980978;28;20049;-86
2024/03/12 01:45:34;;;;;;;37.05;19.02;;;8.00;99.90;;;;;;5002511;28;20041;-85
2024/03/12 01:48:06;;;;;;;39.42;20.98;;;8.00;99.90;;;;;;4974573;28;20452;-87
2024/03/12 01:50:32;;;;;;;51.08;30.67;;;7.90;99.90;;;;;;4974463;28;20042;-88
2024/03/12 01:53:01;;;;;;;23.80;11.18;;;7.90;99.90;;;;;;4965636;28;20061;-89
2024/03/12 01:55:26;;;;;;;43.65;20.45;;;7.90;99.90;;;;;;4976534;28;20050;-84
2024/03/12 01:57:52;;;;;;;51.65;25.83;;;7.90;99.90;;;;;;4989578;28;20046;-87
2024/03/12 02:00:18;;;;;;;43.63;20.17;;;7.90;99.90;;;;;;4993013;28;20046;-88
2024/03/12 02:02:45;;;;;;;50.15;23.90;;;7.90;99.90;;;;;;4987623;28;20030;-89
2024/03/12 02:05:11;;;;;;;44.83;23.75;;;7.90;99.90;;;;;;5002691;28;20072;-89
2024/03/12 02:07:40;;;;;;;58.05;22.95;;;7.80;99.90;;;;;;4987304;28;20681;-91
2024/03/12 02:10:07;;;;;;;39.92;18.75;;;7.80;99.90;;;;;;4977210;28;20034;-90
2024/03/12 02:12:33;;;;;;;35.90;15.10;;;7.80;99.90;;;;;;4991063;28;20026;-89
2024/03/12 02:15:05;;;;;;;46.72;22.83;;;7.80;99.90;;;;;;4965155;28;20046;-89
2024/03/12 02:17:31;;;;;;;50.90;23.85;;;7.80;99.90;;;;;;4998253;28;20033;-86
2024/03/12 02:19:57;;;;;;;48.83;19.50;;;7.80;99.90;;;;;;4979351;28;20030;-89
2024/03/12 02:22:23;;;;;;;32.88;15.48;;;7.80;99.90;;;;;;4972311;28;20062;-87
2024/03/12 02:24:50;;;;;;;49.45;24.45;;;7.80;99.90;;;;;;4988957;28;20065;-87
2024/03/12 02:27:16;;;;;;;38.78;18.27;;;7.80;99.90;;;;;;4990106;28;20061;-85
2024/03/12 02:29:44;;;;;;;58.35;30.33;;;7.80;99.90;;;;;;4983367;28;20034;-88
2024/03/12 02:32:09;;;;;;;35.05;16.75;;;7.80;99.90;;;;;;4992794;28;20030;-88
2024/03/12 02:34:35;;;;;;;48.53;25.38;;;7.80;99.90;;;;;;4995010;28;20053;-89
2024/03/12 02:37:02;;;;;;;58.33;25.05;;;7.80;99.90;;;;;;4987029;28;20034;-82
2024/03/12 02:39:28;;;;;;;45.28;22.90;;;7.80;99.90;;;;;;4995981;28;20034;-86
2024/03/12 02:41:53;;;;;;;53.17;23.80;;;7.80;99.90;;;;;;5005629;28;20041;-87
2024/03/12 02:44:21;;;;;;;32.58;14.48;;;7.70;99.90;;;;;;4999961;28;20093;-88
2024/03/12 02:46:49;;;;;;;38.42;19.67;;;7.80;99.90;;;;;;5001615;28;20511;-90
2024/03/12 02:49:16;;;;;;;51.92;23.08;;;7.80;99.90;;;;;;4980476;28;20046;-89
2024/03/12 02:51:45;;;;;;;55.72;25.05;;;7.80;99.90;;;;;;4985541;28;20037;-81
2024/03/12 02:54:12;;;;;;;69.35;30.58;;;7.80;99.90;;;;;;4999158;28;20035;-90
2024/03/12 02:56:38;;;;;;;40.72;15.30;;;7.80;99.90;;;;;;4988080;28;20030;-83
2024/03/12 02:59:04;;;;;;;67.38;32.38;;;7.70;99.90;;;;;;4992931;28;20404;-82
2024/03/12 03:01:29;;;;;;;60.30;28.50;;;7.70;99.90;;;;;;4992396;28;20133;-89
2024/03/12 03:03:57;;;;;;;63.55;26.48;;;7.70;99.90;;;;;;4982497;28;20045;-89
2024/03/12 03:06:23;;;;;;;62.35;28.48;;;7.80;99.90;;;;;;4990829;28;20046;-84
2024/03/12 03:08:49;;;;;;;28.40;9.43;;;7.80;99.90;;;;;;4983094;28;20030;-89
2024/03/12 03:11:14;;;;;;;48.53;20.35;;;7.80;99.90;;;;;;4990110;28;20040;-83
2024/03/12 03:13:40;;;;;;;57.35;28.38;;;7.80;99.90;;;;;;4976600;28;20086;-90
2024/03/12 03:16:06;;;;;;;25.33;13.05;;;7.70;99.90;;;;;;4962665;28;20038;-84
2024/03/12 03:18:31;;;;;;;31.55;14.32;;;7.70;99.90;;;;;;4973533;28;20140;-84
2024/03/12 03:20:57;;;;;;;55.03;26.88;;;7.70;99.90;;;;;;4978460;28;20039;-87
2024/03/12 03:23:23;;;;;;;57.42;26.25;;;7.80;99.90;;;;;;4970117;28;20031;-88
2024/03/12 03:25:48;;;;;;;50.58;24.52;;;7.80;99.90;;;;;;4961392;28;20034;-86
2024/03/12 03:28:14;;;;;;;53.80;25.40;;;7.70;99.90;;;;;;4976657;28;20050;-83
2024/03/12 03:30:39;;;;;;;37.63;18.15;;;7.70;99.90;;;;;;4978485;28;20098;-87
2024/03/12 03:33:08;;;;;;;51.55;26.13;;;7.70;99.90;;;;;;4995408;28;20029;-85
2024/03/12 03:35:33;;;;;;;51.45;24.80;;;7.80;99.90;;;;;;4961321;28;20531;-87
2024/03/12 03:38:00;;;;;;;28.83;13.23;;;7.70;99.90;;;;;;4997394;28;20046;-84
2024/03/12 03:40:26;;;;;;;46.25;21.77;;;7.70;99.90;;;;;;4996221;28;20051;-89
2024/03/12 03:42:55;;;;;;;50.42;24.20;;;7.70;99.90;;;;;;4993408;28;20093;-88
2024/03/12 03:45:24;;;;;;;44.85;21.33;;;7.70;99.90;;;;;;4996401;28;20117;-83
2024/03/12 03:47:50;;;;;;;30.48;15.90;;;7.70;99.90;;;;;;4996345;28;20030;-83
2024/03/12 03:50:16;;;;;;;31.25;14.38;;;7.70;99.90;;;;;;4994809;28;20069;-86
2024/03/12 03:52:41;;;;;;;37.10;15.65;;;7.70;99.90;;;;;;4995184;28;20038;-87
2024/03/12 03:55:09;;;;;;;40.08;17.55;;;7.70;99.90;;;;;;4980181;28;20558;-86
2024/03/12 03:57:35;;;;;;;33.67;18.08;;;7.60;99.90;;;;;;4959612;28;20399;-85
2024/03/12 04:00:12;;;;;;;27.90;13.70;;;7.60;99.90;;;;;;4974184;28;20027;-88
2024/03/12 04:02:44;;;;;;;26.27;13.65;;;7.70;99.90;;;;;;4995441;28;20045;-83
2024/03/12 04:05:11;;;;;;;27.10;13.75;;;7.60;99.90;;;;;;4959906;28;20537;-83
2024/03/12 04:07:36;;;;;;;34.47;17.73;;;7.70;99.90;;;;;;4991589;28;20571;-85
2024/03/12 04:10:02;;;;;;;21.92;11.02;;;7.70;99.90;;;;;;4982117;28;20050;-85
2024/03/12 04:12:30;;;;;;;35.03;16.67;;;7.60;99.90;;;;;;4996068;28;20061;-86
2024/03/12 04:14:57;;;;;;;23.05;11.52;;;7.60;99.90;;;;;;4979086;28;20120;-89
2024/03/12 04:17:23;;;;;;;31.38;17.63;;;7.70;99.90;;;;;;4988725;28;20022;-89
2024/03/12 04:19:49;;;;;;;17.67;8.80;;;7.60;99.90;;;;;;4998385;28;20333;-88
2024/03/12 04:22:16;;;;;;;27.77;14.57;;;7.60;99.90;;;;;;4981992;28;20030;-88
2024/03/12 04:24:43;;;;;;;28.20;14.45;;;7.70;99.90;;;;;;4999518;28;20045;-85
2024/03/12 04:27:14;;;;;;;23.10;12.48;;;7.60;99.90;;;;;;4990115;28;20465;-88
2024/03/12 04:29:40;;;;;;;29.35;16.80;;;7.60;99.90;;;;;;4993544;28;20031;-82
2024/03/12 04:32:06;;;;;;;14.50;7.47;;;7.60;99.90;;;;;;4984178;28;20148;-88
2024/03/12 04:34:33;;;;;;;28.08;15.80;;;7.70;99.90;;;;;;4961475;28;20414;-87
2024/03/12 04:36:59;;;;;;;23.08;15.05;;;7.70;99.90;;;;;;4985649;28;20562;-89
2024/03/12 04:39:31;;;;;;;21.45;12.30;;;7.60;99.90;;;;;;4982225;28;20015;-85
2024/03/12 04:42:05;;;;;;;22.42;12.57;;;7.60;99.90;;;;;;5002827;28;20446;-88
2024/03/12 04:44:31;;;;;;;23.75;14.70;;;7.60;99.90;;;;;;4999523;28;20071;-84
2024/03/12 04:46:56;;;;;;;20.08;12.57;;;7.70;99.90;;;;;;5005167;28;20040;-86
2024/03/12 04:49:22;;;;;;;21.45;13.27;;;7.60;99.90;;;;;;4998119;28;20031;-87
2024/03/12 04:51:47;;;;;;;15.40;7.43;;;7.60;99.90;;;;;;4973406;28;20034;-89
2024/03/12 04:54:13;;;;;;;19.75;12.52;;;7.60;99.90;;;;;;4987315;28;20081;-87
2024/03/12 04:56:39;;;;;;;21.58;13.73;;;7.60;99.90;;;;;;4968759;28;20026;-87
2024/03/12 04:59:04;;;;;;;22.27;12.35;;;7.60;99.90;;;;;;4984157;28;20049;-85
2024/03/12 05:01:30;;;;;;;19.10;10.82;;;7.60;99.90;;;;;;4969828;28;20085;-85
2024/03/12 05:03:56;;;;;;;14.35;7.32;;;7.60;99.90;;;;;;4987280;28;20057;-85
2024/03/12 05:06:21;;;;;;;21.63;13.75;;;7.70;99.90;;;;;;4954912;28;20030;-88
2024/03/12 05:08:47;;;;;;;9.80;6.43;;;7.60;99.90;;;;;;4980391;28;20038;-81
2024/03/12 05:11:14;;;;;;;22.88;12.68;;;7.60;99.90;;;;;;4954159;28;20049;-88
2024/03/12 05:13:41;;;;;;;21.60;11.68;;;7.60;99.90;;;;;;4971274;28;20030;-86
2024/03/12 05:16:07;;;;;;;19.65;10.88;;;7.60;99.90;;;;;;4992880;28;20064;-82
2024/03/12 05:18:32;;;;;;;22.63;13.70;;;7.50;99.90;;;;;;4993924;28;20050;-88
2024/03/12 05:20:58;;;;;;;22.05;13.27;;;7.50;99.90;;;;;;4984351;28;20038;-86
2024/03/12 05:23:23;;;;;;;31.58;19.77;;;7.60;99.90;;;;;;4963974;28;20038;-86
2024/03/12 05:25:51;;;;;;;18.38;10.82;;;7.60;99.90;;;;;;4973895;28;20095;-85
2024/03/12 05:28:19;;;;;;;28.27;16.98;;;7.60;99.90;;;;;;4958838;28;20117;-84
2024/03/12 05:30:45;;;;;;;26.15;16.85;;;7.60;99.90;;;;;;4971965;28;20031;-85
2024/03/12 05:33:14;;;;;;;25.20;15.10;;;7.60;99.90;;;;;;4970785;28;20027;-84
2024/03/12 05:35:47;;;;;;;20.35;11.73;;;7.60;99.90;;;;;;4971183;28;20499;-85
2024/03/12 05:49:03;;;;;;;23.08;14.23;;;7.50;99.90;;;;;;4987694;28;20088;-88
2024/03/12 05:51:31;;;;;;;20.50;11.05;;;7.50;99.90;;;;;;4987383;28;20393;-87
2024/03/12 05:53:58;;;;;;;20.25;11.70;;;7.60;99.90;;;;;;4985470;28;20077;-85
2024/03/12 05:56:23;;;;;;;27.52;16.20;;;7.50;99.90;;;;;;4987421;28;20262;-88
2024/03/12 05:58:49;;;;;;;16.15;9.60;;;7.60;99.90;;;;;;4990254;28;20038;-87
2024/03/12 06:01:15;;;;;;;23.52;15.07;;;7.60;99.90;;;;;;4959642;28;20419;-87
2024/03/12 06:03:41;;;;;;;21.33;14.73;;;7.50;99.90;;;;;;4975822;28;20450;-84
2024/03/12 06:06:07;;;;;;;24.30;15.90;;;7.50;99.90;;;;;;4984000;28;20118;-86
2024/03/12 06:08:33;;;;;;;21.13;12.52;;;7.50;99.90;;;;;;4982334;28;20369;-87
2024/03/12 06:10:59;;;;;;;26.52;17.50;;;7.50;99.90;;;;;;4981357;28;20120;-86
2024/03/12 06:13:24;;;;;;;19.98;12.63;;;7.50;99.90;;;;;;4984706;28;20041;-86
2024/03/12 06:15:50;;;;;;;20.05;12.68;;;7.50;99.90;;;;;;4971437;28;20399;-86
2024/03/12 06:18:18;;;;;;;23.38;13.88;;;7.50;99.90;;;;;;4986162;28;20045;-88
2024/03/12 06:20:49;;;;;;;21.23;12.70;;;7.50;99.90;;;;;;4986685;28;20043;-87
2024/03/12 06:23:14;;;;;;;17.42;10.32;;;7.50;99.90;;;;;;4985578;28;20054;-88
2024/03/12 06:25:40;;;;;;;19.08;12.15;;;7.50;99.90;;;;;;4978375;28;20076;-88
2024/03/12 06:28:06;;;;;;;14.82;8.23;;;7.50;99.90;;;;;;4948673;28;20491;-87
2024/03/12 06:30:34;;;;;;;24.90;17.20;;;7.50;99.90;;;;;;4967664;28;20045;-89
2024/03/12 06:33:03;;;;;;;24.13;14.70;;;7.50;99.90;;;;;;4980912;28;20076;-87
2024/03/12 06:35:30;;;;;;;21.90;14.35;;;7.40;99.90;;;;;;4982324;28;20038;-86
2024/03/12 06:37:56;;;;;;;23.52;13.82;;;7.50;99.90;;;;;;4970363;28;20396;-88
2024/03/12 06:40:25;;;;;;;22.83;13.85;;;7.50;99.90;;;;;;4982704;28;20521;-89
2024/03/12 06:42:51;;;;;;;20.63;14.13;;;7.50;99.90;;;;;;4970510;28;20400;-85
2024/03/12 06:45:17;;;;;;;21.60;13.27;;;7.50;99.90;;;;;;4951344;28;20034;-85
2024/03/12 06:47:42;;;;;;;21.23;12.50;;;7.50;99.90;;;;;;4967736;28;20038;-84
2024/03/12 06:50:09;;;;;;;12.43;7.90;;;7.40;99.90;;;;;;4964602;28;20113;-84
2024/03/12 06:52:35;;;;;;;28.60;15.65;;;7.40;99.90;;;;;;4958778;28;20030;-85
2024/03/12 06:55:05;;;;;;;13.02;8.25;;;7.40;99.90;;;;;;4976735;28;20499;-84
2024/03/12 06:57:34;;;;;;;20.38;12.57;;;7.50;99.90;;;;;;4977758;28;20789;-85
2024/03/12 07:00:08;;;;;;;20.42;11.20;;;7.50;99.90;;;;;;4964364;28;20176;-83
2024/03/12 07:02:38;;;;;;;17.15;9.55;;;7.50;99.90;;;;;;4966827;28;20512;-86
2024/03/12 07:05:09;;;;;;;16.33;9.25;;;7.40;99.90;;;;;;4948629;28;20031;-85
2024/03/12 07:07:35;;;;;;;13.50;8.65;;;7.50;99.90;;;;;;4980213;28;20038;-85
2024/03/12 07:10:03;;;;;;;8.75;4.30;;;7.40;99.90;;;;;;4966727;28;20499;-86
2024/03/12 07:12:31;;;;;;;17.10;11.85;;;7.40;99.90;;;;;;4979541;28;20034;-85
2024/03/12 07:14:57;;;;;;;17.42;9.25;;;7.50;99.90;;;;;;4983689;28;20419;-86
2024/03/12 07:17:22;;;;;;;17.02;10.93;;;7.40;99.90;;;;;;4981627;28;20042;-85
2024/03/12 07:19:49;;;;;;;16.92;11.75;;;7.50;99.90;;;;;;4981845;28;20022;-85
2024/03/12 07:22:17;;;;;;;15.35;10.68;;;7.50;99.90;;;;;;4965980;28;20156;-85
2024/03/12 07:24:43;;;;;;;22.45;13.05;;;7.40;99.90;;;;;;4967928;28;20057;-87
2024/03/12 07:27:09;;;;;;;17.55;10.35;;;7.50;99.90;;;;;;4982583;28;20072;-86
2024/03/12 07:29:34;;;;;;;18.48;10.32;;;7.50;99.90;;;;;;4952385;28;20053;-85
2024/03/12 07:32:03;;;;;;;14.48;8.30;;;7.40;99.90;;;;;;4964773;28;20026;-84
2024/03/12 07:34:32;;;;;;;13.50;6.13;;;7.40;99.90;;;;;;4947695;28;20500;-84
2024/03/12 07:36:59;;;;;;;13.23;7.30;;;7.40;99.90;;;;;;4957421;28;20084;-83
2024/03/12 07:39:25;;;;;;;22.10;15.10;;;7.40;99.90;;;;;;4983907;28;20480;-84
2024/03/12 07:41:54;;;;;;;15.35;8.20;;;7.50;99.90;;;;;;4978513;28;20085;-85
2024/03/12 07:44:20;;;;;;;18.52;11.50;;;7.40;99.90;;;;;;4944212;28;20027;-85
2024/03/12 07:46:46;;;;;;;11.27;5.63;;;7.40;99.90;;;;;;4966895;28;20026;-85
2024/03/12 07:49:12;;;;;;;23.77;15.40;;;7.40;99.90;;;;;;4965580;28;20123;-84
2024/03/12 07:51:39;;;;;;;12.48;7.57;;;7.40;99.90;;;;;;4949746;28;20072;-84
2024/03/12 07:54:06;;;;;;;25.38;13.07;;;7.40;99.90;;;;;;4950843;28;20043;-84
2024/03/12 07:56:32;;;;;;;21.23;11.30;;;7.40;99.90;;;;;;4971604;28;20400;-81
2024/03/12 07:58:58;;;;;;;22.67;11.93;;;7.40;99.90;;;;;;4969839;28;20510;-83
2024/03/12 08:01:26;;;;;;;18.50;9.13;;;7.40;99.90;;;;;;4986513;28;20121;-83
2024/03/12 08:03:52;;;;;;;34.90;18.15;;;7.40;99.90;;;;;;4965628;28;20583;-85
2024/03/12 08:06:20;;;;;;;22.42;13.32;;;7.40;99.90;;;;;;4985010;28;20388;-83
2024/03/12 08:08:48;;;;;;;33.83;18.33;;;7.40;99.90;;;;;;4967731;28;20041;-79
2024/03/12 08:11:18;;;;;;;34.53;18.33;;;7.40;99.90;;;;;;4988983;28;20041;-79
2024/03/12 08:13:47;;;;;;;26.50;12.48;;;7.40;99.90;;;;;;4979887;28;20521;-81
2024/03/12 08:16:15;;;;;;;30.33;16.40;;;7.40;99.90;;;;;;4992818;28;20056;-78
2024/03/12 08:18:41;;;;;;;27.05;11.25;;;7.40;99.90;;;;;;4974387;28;20034;-82
2024/03/12 08:21:08;;;;;;;13.98;7.78;;;7.40;99.90;;;;;;4979387;28;20038;-82
2024/03/12 08:23:34;;;;;;;11.77;5.40;;;7.40;99.90;;;;;;4990894;28;20052;-82
2024/03/12 08:26:01;;;;;;;32.53;15.20;;;7.40;99.90;;;;;;4953370;28;20038;-83
2024/03/12 08:28:27;;;;;;;22.90;12.38;;;7.40;99.90;;;;;;5004779;28;20394;-82
2024/03/12 08:30:53;;;;;;;30.30;13.18;;;7.50;99.90;;;;;;5000309;28;20038;-82
2024/03/12 08:33:19;;;;;;;12.73;7.88;;;7.50;99.90;;;;;;4953098;28;20049;-82
2024/03/12 08:35:45;;;;;;;30.25;14.88;;;7.50;99.90;;;;;;4964426;28;20034;-83
2024/03/12 08:38:10;;;;;;;26.77;12.40;;;7.60;99.90;;;;;;4987845;28;20054;-83
2024/03/12 08:40:36;;;;;;;31.30;15.68;;;7.50;99.90;;;;;;4984164;28;20030;-82
2024/03/12 08:43:02;;;;;;;16.77;7.72;;;7.50;99.90;;;;;;4985430;28;20031;-80
2024/03/12 08:45:28;;;;;;;25.60;12.57;;;7.60;99.90;;;;;;4964077;28;20450;-83
2024/03/12 08:47:53;;;;;;;25.27;11.23;;;7.70;99.90;;;;;;4966166;28;20108;-82
2024/03/12 08:50:19;;;;;;;28.35;14.13;;;7.60;99.90;;;;;;4980078;28;20169;-82
2024/03/12 08:52:44;;;;;;;18.83;9.20;;;7.70;99.90;;;;;;4968987;28;20105;-81
2024/03/12 08:55:10;;;;;;;24.88;13.05;;;7.70;99.90;;;;;;4971039;28;20035;-81
2024/03/12 08:57:35;;;;;;;25.65;11.35;;;7.60;99.90;;;;;;4981544;28;20033;-81
2024/03/12 09:00:01;;;;;;;34.30;15.02;;;7.80;99.90;;;;;;4983256;28;20031;-81
2024/03/12 09:02:27;;;;;;;8.60;4.15;;;7.70;99.90;;;;;;4974452;28;20032;-80
2024/03/12 09:04:53;;;;;;;26.98;14.15;;;7.70;99.90;;;;;;4972396;28;20161;-80
2024/03/12 09:07:19;;;;;;;21.50;10.70;;;7.70;99.90;;;;;;4979714;28;20113;-80
2024/03/12 09:09:45;;;;;;;28.50;13.85;;;7.70;99.90;;;;;;4982781;28;20520;-81
2024/03/12 09:12:10;;;;;;;20.60;10.48;;;7.70;99.90;;;;;;4965864;28;20084;-80
2024/03/12 09:14:36;;;;;;;27.73;15.05;;;7.70;99.90;;;;;;4978034;28;20051;-80
2024/03/12 09:17:10;;;;;;;30.58;15.60;;;7.80;99.90;;;;;;4982613;28;20031;-81
2024/03/12 09:19:36;;;;;;;24.83;11.65;;;7.80;99.90;;;;;;4966757;28;20062;-81
2024/03/12 09:22:03;;;;;;;25.48;13.60;;;7.70;99.90;;;;;;4979588;28;20040;-80
2024/03/12 09:24:30;;;;;;;18.88;9.07;;;7.70;99.90;;;;;;4967959;28;20503;-81
2024/03/12 09:26:56;;;;;;;25.02;13.63;;;7.70;99.90;;;;;;4971170;28;20038;-81
2024/03/12 09:29:22;;;;;;;21.23;12.02;;;7.80;99.90;;;;;;4980639;28;20038;-80
2024/03/12 09:31:50;;;;;;;20.60;11.80;;;7.80;99.90;;;;;;4982765;28;20034;-80
2024/03/12 09:34:16;;;;;;;21.15;9.10;;;7.70;99.90;;;;;;4978689;28;20057;-80
2024/03/12 09:36:42;;;;;;;26.05;14.10;;;7.70;99.90;;;;;;4963550;28;20065;-79
2024/03/12 09:39:10;;;;;;;22.58;9.48;;;7.70;99.90;;;;;;4967184;28;20035;-79
2024/03/12 09:41:42;;;;;;;31.88;15.30;;;7.70;99.90;;;;;;4961835;28;20039;-81
2024/03/12 09:44:10;;;;;;;33.88;17.38;;;7.70;99.90;;;;;;4966812;28;20127;-80
2024/03/12 09:46:42;;;;;;;28.27;14.20;;;7.70;99.90;;;;;;4964411;28;20035;-81
2024/03/12 09:49:12;;;;;;;13.85;6.38;;;7.80;99.90;;;;;;4983532;28;20038;-81
2024/03/12 09:51:38;;;;;;;23.42;12.85;;;7.80;99.90;;;;;;4988849;28;21477;-81
2024/03/12 09:54:03;;;;;;;22.35;11.65;;;7.80;99.90;;;;;;4969317;28;20116;-80
2024/03/12 09:56:29;;;;;;;24.60;10.65;;;7.80;99.90;;;;;;4986607;28;20042;-81
2024/03/12 09:58:56;;;;;;;23.50;12.43;;;7.90;99.90;;;;;;4968460;28;20460;-81
2024/03/12 10:01:23;;;;;;;30.35;14.98;;;7.90;99.90;;;;;;4966447;28;20038;-81
2024/03/12 10:03:50;;;;;;;21.23;11.50;;;7.90;99.90;;;;;;4986349;28;20029;-81
2024/03/12 10:06:18;;;;;;;7.28;4.45;;;7.90;99.90;;;;;;4967022;28;20465;-82
2024/03/12 10:08:44;;;;;;;30.75;14.85;;;7.90;99.90;;;;;;4983412;28;20474;-81
2024/03/12 10:11:09;;;;;;;17.98;9.02;;;7.90;99.90;;;;;;4970447;28;20038;-82
2024/03/12 10:13:37;;;;;;;30.38;16.83;;;7.80;99.90;;;;;;4970022;28;20030;-81
2024/03/12 10:16:03;;;;;;;26.00;13.50;;;7.80;99.90;;;;;;4966552;28;20030;-81
2024/03/12 10:18:30;;;;;;;26.33;14.48;;;7.80;99.90;;;;;;4967001;28;20084;-82
2024/03/12 10:20:58;;;;;;;17.42;7.45;;;7.80;99.90;;;;;;4961396;28;20550;-81
2024/03/12 10:23:25;;;;;;;16.30;9.25;;;7.80;99.90;;;;;;4983080;28;20504;-82
2024/03/12 10:25:51;;;;;;;23.90;11.63;;;7.80;99.90;;;;;;4971373;28;20117;-81
2024/03/12 10:28:22;;;;;;;22.08;14.35;;;7.80;99.90;;;;;;4967272;28;20499;-82
2024/03/12 10:30:49;;;;;;;27.25;14.15;;;7.80;99.90;;;;;;4976808;28;20044;-81
2024/03/12 10:33:18;;;;;;;23.60;11.77;;;7.80;99.90;;;;;;4986664;28;20098;-82
2024/03/12 10:35:46;;;;;;;16.83;9.45;;;7.80;99.90;;;;;;4943214;28;20042;-82
2024/03/12 10:38:35;;;;;;;31.35;16.35;;;7.90;99.90;;;;;;4963251;28;20475;-81
2024/03/12 10:41:19;;;;;;;30.85;16.23;;;8.00;99.90;;;;;;4982436;28;20869;-81
2024/03/12 10:43:52;;;;;;;19.02;9.57;;;8.00;99.90;;;;;;4966545;28;20687;-81
2024/03/12 10:46:19;;;;;;;26.60;12.63;;;8.00;99.90;;;;;;4983113;28;20043;-81
2024/03/12 10:48:47;;;;;;;26.30;14.40;;;8.00;99.90;;;;;;4971294;28;20388;-81
2024/03/12 10:51:17;;;;;;;22.58;13.65;;;8.00;99.90;;;;;;4979292;28;20130;-81
2024/03/12 10:53:43;;;;;;;31.75;15.70;;;8.00;99.90;;;;;;4967913;28;20114;-81
2024/03/12 10:56:09;;;;;;;38.95;21.05;;;8.00;99.90;;;;;;4981714;28;20058;-81
2024/03/12 10:58:37;;;;;;;33.05;18.30;;;8.00;99.90;;;;;;4980271;28;20030;-81
2024/03/12 11:01:04;;;;;;;36.67;19.17;;;8.10;99.90;;;;;;4953642;28;20042;-80
2024/03/12 11:03:31;;;;;;;32.10;18.00;;;8.10;99.90;;;;;;4968910;28;20041;-81
2024/03/12 11:05:57;;;;;;;28.92;14.57;;;8.10;99.90;;;;;;4988686;28;20049;-80
2024/03/12 11:08:23;;;;;;;34.72;18.23;;;8.10;99.90;;;;;;4966557;28;20046;-81
2024/03/12 11:10:49;;;;;;;25.65;14.48;;;8.20;99.90;;;;;;4981167;28;20033;-81
2024/03/12 11:13:20;;;;;;;36.22;19.75;;;8.20;99.90;;;;;;4976630;28;20030;-80
2024/03/12 11:15:48;;;;;;;33.83;16.10;;;8.30;99.90;;;;;;4985668;28;20026;-81
2024/03/12 11:18:14;;;;;;;30.17;14.05;;;8.20;99.90;;;;;;4986411;28;20034;-81
2024/03/12 11:20:40;;;;;;;30.25;14.95;;;8.30;99.90;;;;;;4979968;28;20073;-82
2024/03/12 11:23:06;;;;;;;32.80;16.90;;;8.30;99.90;;;;;;4972562;28;20492;-81
2024/03/12 11:25:35;;;;;;;22.55;12.10;;;8.30;99.90;;;;;;4981886;28;20522;-80
2024/03/12 11:28:26;;;;;;;28.50;13.80;;;8.30;99.90;;;;;;4979586;28;20496;-81
2024/03/12 11:30:54;;;;;;;23.50;10.98;;;8.30;99.90;;;;;;4980529;28;20507;-79
2024/03/12 11:33:41;;;;;;;27.42;14.68;;;8.20;99.90;;;;;;4996996;28;20122;-80
2024/03/12 11:36:29;;;;;;;30.23;15.60;;;8.20;99.90;;;;;;4982800;28;20150;-81
2024/03/12 11:38:57;;;;;;;27.73;13.27;;;8.20;99.90;;;;;;4982374;28;20042;-82
2024/03/12 11:41:59;;;;;;;16.55;9.10;;;8.30;99.90;;;;;;4970103;28;20526;-82
2024/03/12 11:44:44;;;;;;;29.13;15.82;;;8.30;99.90;;;;;;4982646;28;20027;-81
2024/03/12 11:47:24;;;;;;;27.48;13.80;;;8.30;99.90;;;;;;4980809;28;20567;-81
2024/03/12 11:49:50;;;;;;;30.67;17.55;;;8.20;99.90;;;;;;4961095;28;20104;-81
2024/03/12 11:52:22;;;;;;;20.73;11.23;;;8.20;99.90;;;;;;4966712;28;20089;-81
2024/03/12 11:54:48;;;;;;;20.30;9.18;;;8.20;99.90;;;;;;4949682;28;20027;-81
2024/03/12 11:57:21;;;;;;;31.38;15.90;;;8.20;99.90;;;;;;4954406;28;20030;-81
2024/03/12 11:59:55;;;;;;;27.98;15.50;;;8.20;99.90;;;;;;4968577;28;20026;-80
2024/03/12 12:02:23;;;;;;;27.70;15.13;;;8.30;99.90;;;;;;4955352;28;20035;-81
2024/03/12 12:04:54;;;;;;;41.53;19.98;;;8.30;99.90;;;;;;4971771;28;20121;-81
2024/03/12 12:07:23;;;;;;;23.52;11.13;;;8.30;99.90;;;;;;4963236;28;20611;-81
2024/03/12 12:09:49;;;;;;;34.70;16.00;;;8.30;99.90;;;;;;4966940;28;20022;-82
2024/03/12 12:12:15;;;;;;;37.72;17.65;;;8.30;99.90;;;;;;4966477;28;20023;-81
2024/03/12 12:14:45;;;;;;;30.95;15.90;;;8.40;99.90;;;;;;4985205;28;20113;-81
2024/03/12 12:17:11;;;;;;;37.45;19.10;;;8.50;99.90;;;;;;4969184;28;20031;-82
2024/03/12 12:19:37;;;;;;;30.52;16.60;;;8.60;99.90;;;;;;4984262;28;20566;-80
2024/03/12 12:22:04;;;;;;;16.17;6.45;;;8.70;99.90;;;;;;4968819;28;20053;-81
2024/03/12 12:24:31;;;;;;;35.78;20.70;;;8.80;99.90;;;;;;4983184;28;20043;-81
2024/03/12 12:26:56;;;;;;;27.13;13.85;;;8.90;99.90;;;;;;4969832;28;20391;-81
2024/03/12 12:29:23;;;;;;;35.70;18.02;;;8.70;99.90;;;;;;4985307;28;20022;-80
2024/03/12 12:31:51;;;;;;;31.42;17.23;;;8.80;99.90;;;;;;4979843;28;20046;-81
2024/03/12 12:34:17;;;;;;;32.80;16.45;;;8.80;99.90;;;;;;4965524;28;20030;-80
2024/03/12 12:36:44;;;;;;;37.10;19.02;;;8.90;99.90;;;;;;4981881;28;20484;-80
2024/03/12 12:39:12;;;;;;;35.53;18.52;;;8.90;99.90;;;;;;4967475;28;24561;-81
2024/03/12 12:41:48;;;;;;;32.80;17.10;;;9.00;99.90;;;;;;4982535;28;20033;-81
2024/03/12 12:44:20;;;;;;;34.22;17.05;;;9.10;99.90;;;;;;4992146;28;20056;-79
2024/03/12 12:46:47;;;;;;;36.75;20.42;;;9.20;99.90;;;;;;4993649;28;20096;-80
2024/03/12 12:49:14;;;;;;;35.10;17.88;;;9.30;99.90;;;;;;4973804;28;20491;-80
2024/03/12 12:51:40;;;;;;;15.52;8.15;;;9.30;99.90;;;;;;4969801;28;20050;-79